sensor_id;sensor_type;location;lat;lon;timestamp;P1;durP1;ratioP1;P2;durP2;ratioP2
9436;SDS011;4757;59.334;18.034;2022-07-23T00:00:43;17.60;;;7.60;;
9436;SDS011;4757;59.334;18.034;2022-07-23T00:03:10;14.53;;;7.73;;
9436;SDS011;4757;59.334;18.034;2022-07-23T00:05:37;11.67;;;6.47;;
9436;SDS011;4757;59.334;18.034;2022-07-23T00:08:06;17.43;;;6.37;;
9436;SDS011;4757;59.334;18.034;2022-07-23T00:10:39;14.90;;;6.43;;
9436;SDS011;4757;59.334;18.034;2022-07-23T00:13:06;14.87;;;7.20;;
9436;SDS011;4757;59.334;18.034;2022-07-23T00:15:34;14.83;;;6.50;;
9436;SDS011;4757;59.334;18.034;2022-07-23T00:18:01;13.13;;;6.50;;
9436;SDS011;4757;59.334;18.034;2022-07-23T00:20:28;22.80;;;7.90;;
9436;SDS011;4757;59.334;18.034;2022-07-23T00:22:55;23.63;;;8.57;;
9436;SDS011;4757;59.334;18.034;2022-07-23T00:25:22;29.83;;;9.00;;
9436;SDS011;4757;59.334;18.034;2022-07-23T00:27:55;20.33;;;8.20;;
9436;SDS011;4757;59.334;18.034;2022-07-23T00:30:22;20.33;;;7.53;;
9436;SDS011;4757;59.334;18.034;2022-07-23T00:32:50;15.83;;;7.13;;
9436;SDS011;4757;59.334;18.034;2022-07-23T00:35:26;22.37;;;7.40;;
9436;SDS011;4757;59.334;18.034;2022-07-23T00:37:55;19.07;;;8.77;;
9436;SDS011;4757;59.334;18.034;2022-07-23T00:40:23;18.03;;;7.07;;
9436;SDS011;4757;59.334;18.034;2022-07-23T00:42:50;19.77;;;6.97;;
9436;SDS011;4757;59.334;18.034;2022-07-23T00:45:18;17.23;;;8.17;;
9436;SDS011;4757;59.334;18.034;2022-07-23T00:47:45;22.17;;;8.50;;
9436;SDS011;4757;59.334;18.034;2022-07-23T00:50:13;26.57;;;8.77;;
9436;SDS011;4757;59.334;18.034;2022-07-23T00:52:40;31.03;;;10.27;;
9436;SDS011;4757;59.334;18.034;2022-07-23T00:55:08;26.00;;;9.47;;
9436;SDS011;4757;59.334;18.034;2022-07-23T00:57:36;19.43;;;8.90;;
9436;SDS011;4757;59.334;18.034;2022-07-23T01:00:04;28.30;;;8.80;;
9436;SDS011;4757;59.334;18.034;2022-07-23T01:02:34;24.60;;;9.57;;
9436;SDS011;4757;59.334;18.034;2022-07-23T01:05:02;22.13;;;9.23;;
9436;SDS011;4757;59.334;18.034;2022-07-23T01:07:29;20.37;;;10.27;;
9436;SDS011;4757;59.334;18.034;2022-07-23T01:09:56;30.43;;;10.87;;
9436;SDS011;4757;59.334;18.034;2022-07-23T01:12:24;28.70;;;10.37;;
9436;SDS011;4757;59.334;18.034;2022-07-23T01:14:58;20.97;;;8.57;;
9436;SDS011;4757;59.334;18.034;2022-07-23T01:17:26;22.50;;;9.37;;
9436;SDS011;4757;59.334;18.034;2022-07-23T01:19:54;22.13;;;10.37;;
9436;SDS011;4757;59.334;18.034;2022-07-23T01:22:21;26.50;;;9.97;;
9436;SDS011;4757;59.334;18.034;2022-07-23T01:24:48;18.77;;;9.00;;
9436;SDS011;4757;59.334;18.034;2022-07-23T01:27:15;20.73;;;8.17;;
9436;SDS011;4757;59.334;18.034;2022-07-23T01:29:44;16.93;;;7.77;;
9436;SDS011;4757;59.334;18.034;2022-07-23T01:32:11;18.30;;;7.43;;
9436;SDS011;4757;59.334;18.034;2022-07-23T01:34:38;17.53;;;7.80;;
9436;SDS011;4757;59.334;18.034;2022-07-23T01:37:07;18.93;;;6.70;;
9436;SDS011;4757;59.334;18.034;2022-07-23T01:39:34;14.83;;;6.53;;
9436;SDS011;4757;59.334;18.034;2022-07-23T01:42:01;14.37;;;6.70;;
9436;SDS011;4757;59.334;18.034;2022-07-23T01:44:28;11.40;;;7.03;;
9436;SDS011;4757;59.334;18.034;2022-07-23T01:46:55;13.27;;;6.33;;
9436;SDS011;4757;59.334;18.034;2022-07-23T01:49:23;13.07;;;5.93;;
9436;SDS011;4757;59.334;18.034;2022-07-23T01:51:50;13.40;;;6.07;;
9436;SDS011;4757;59.334;18.034;2022-07-23T01:54:30;10.47;;;5.67;;
9436;SDS011;4757;59.334;18.034;2022-07-23T01:56:58;14.07;;;6.30;;
9436;SDS011;4757;59.334;18.034;2022-07-23T01:59:27;15.50;;;5.90;;
9436;SDS011;4757;59.334;18.034;2022-07-23T02:01:54;13.20;;;6.30;;
9436;SDS011;4757;59.334;18.034;2022-07-23T02:04:21;16.63;;;7.07;;
9436;SDS011;4757;59.334;18.034;2022-07-23T02:06:51;11.60;;;6.03;;
9436;SDS011;4757;59.334;18.034;2022-07-23T02:09:18;11.77;;;6.23;;
9436;SDS011;4757;59.334;18.034;2022-07-23T02:11:46;11.10;;;5.67;;
9436;SDS011;4757;59.334;18.034;2022-07-23T02:14:13;8.20;;;5.17;;
9436;SDS011;4757;59.334;18.034;2022-07-23T02:16:40;16.33;;;5.93;;
9436;SDS011;4757;59.334;18.034;2022-07-23T02:19:07;10.23;;;5.23;;
9436;SDS011;4757;59.334;18.034;2022-07-23T02:21:34;11.93;;;5.33;;
9436;SDS011;4757;59.334;18.034;2022-07-23T02:24:01;8.63;;;5.10;;
9436;SDS011;4757;59.334;18.034;2022-07-23T02:26:28;14.70;;;5.30;;
9436;SDS011;4757;59.334;18.034;2022-07-23T02:28:55;9.30;;;4.60;;
9436;SDS011;4757;59.334;18.034;2022-07-23T02:31:22;13.47;;;5.83;;
9436;SDS011;4757;59.334;18.034;2022-07-23T02:33:49;8.57;;;4.43;;
9436;SDS011;4757;59.334;18.034;2022-07-23T02:36:16;10.83;;;5.40;;
9436;SDS011;4757;59.334;18.034;2022-07-23T02:38:43;9.77;;;4.60;;
9436;SDS011;4757;59.334;18.034;2022-07-23T02:41:10;12.00;;;4.77;;
9436;SDS011;4757;59.334;18.034;2022-07-23T02:43:37;10.37;;;4.77;;
9436;SDS011;4757;59.334;18.034;2022-07-23T02:46:04;6.77;;;3.40;;
9436;SDS011;4757;59.334;18.034;2022-07-23T02:48:31;6.30;;;3.30;;
9436;SDS011;4757;59.334;18.034;2022-07-23T02:51:01;5.50;;;3.27;;
9436;SDS011;4757;59.334;18.034;2022-07-23T02:53:28;5.30;;;3.10;;
9436;SDS011;4757;59.334;18.034;2022-07-23T02:55:55;6.50;;;3.03;;
9436;SDS011;4757;59.334;18.034;2022-07-23T02:58:22;4.37;;;2.53;;
9436;SDS011;4757;59.334;18.034;2022-07-23T03:00:49;2.93;;;2.23;;
9436;SDS011;4757;59.334;18.034;2022-07-23T03:03:17;3.00;;;2.33;;
9436;SDS011;4757;59.334;18.034;2022-07-23T03:05:44;3.63;;;2.30;;
9436;SDS011;4757;59.334;18.034;2022-07-23T03:08:11;6.57;;;3.77;;
9436;SDS011;4757;59.334;18.034;2022-07-23T03:10:38;3.93;;;2.10;;
9436;SDS011;4757;59.334;18.034;2022-07-23T03:13:05;4.47;;;2.70;;
9436;SDS011;4757;59.334;18.034;2022-07-23T03:15:32;3.13;;;2.17;;
9436;SDS011;4757;59.334;18.034;2022-07-23T03:17:59;3.47;;;1.80;;
9436;SDS011;4757;59.334;18.034;2022-07-23T03:20:26;3.47;;;1.90;;
9436;SDS011;4757;59.334;18.034;2022-07-23T03:22:54;1.80;;;1.60;;
9436;SDS011;4757;59.334;18.034;2022-07-23T03:25:21;3.03;;;1.60;;
9436;SDS011;4757;59.334;18.034;2022-07-23T03:27:48;2.03;;;1.73;;
9436;SDS011;4757;59.334;18.034;2022-07-23T03:30:15;2.20;;;1.70;;
9436;SDS011;4757;59.334;18.034;2022-07-23T03:32:42;7.07;;;2.50;;
9436;SDS011;4757;59.334;18.034;2022-07-23T03:35:09;4.53;;;1.97;;
9436;SDS011;4757;59.334;18.034;2022-07-23T03:37:37;3.00;;;1.77;;
9436;SDS011;4757;59.334;18.034;2022-07-23T03:40:04;5.93;;;2.07;;
9436;SDS011;4757;59.334;18.034;2022-07-23T03:42:32;1.90;;;1.50;;
9436;SDS011;4757;59.334;18.034;2022-07-23T03:45:00;1.73;;;1.50;;
9436;SDS011;4757;59.334;18.034;2022-07-23T03:47:27;1.67;;;1.20;;
9436;SDS011;4757;59.334;18.034;2022-07-23T03:49:54;4.30;;;1.50;;
9436;SDS011;4757;59.334;18.034;2022-07-23T03:52:21;2.87;;;2.10;;
9436;SDS011;4757;59.334;18.034;2022-07-23T03:54:48;1.97;;;1.40;;
9436;SDS011;4757;59.334;18.034;2022-07-23T03:57:15;2.40;;;1.20;;
9436;SDS011;4757;59.334;18.034;2022-07-23T03:59:42;4.40;;;1.30;;
9436;SDS011;4757;59.334;18.034;2022-07-23T04:02:09;3.20;;;1.50;;
9436;SDS011;4757;59.334;18.034;2022-07-23T04:04:36;2.07;;;1.27;;
9436;SDS011;4757;59.334;18.034;2022-07-23T04:07:03;2.23;;;1.43;;
9436;SDS011;4757;59.334;18.034;2022-07-23T04:09:30;4.07;;;2.20;;
9436;SDS011;4757;59.334;18.034;2022-07-23T04:11:57;4.57;;;1.50;;
9436;SDS011;4757;59.334;18.034;2022-07-23T04:14:25;1.57;;;1.30;;
9436;SDS011;4757;59.334;18.034;2022-07-23T04:16:53;2.10;;;1.43;;
9436;SDS011;4757;59.334;18.034;2022-07-23T04:19:20;2.10;;;1.47;;
9436;SDS011;4757;59.334;18.034;2022-07-23T04:21:49;4.23;;;1.70;;
9436;SDS011;4757;59.334;18.034;2022-07-23T04:24:16;3.13;;;1.50;;
9436;SDS011;4757;59.334;18.034;2022-07-23T04:26:44;1.40;;;1.30;;
9436;SDS011;4757;59.334;18.034;2022-07-23T04:29:11;1.30;;;1.20;;
9436;SDS011;4757;59.334;18.034;2022-07-23T04:31:38;2.87;;;1.33;;
9436;SDS011;4757;59.334;18.034;2022-07-23T04:34:05;2.13;;;1.37;;
9436;SDS011;4757;59.334;18.034;2022-07-23T04:36:32;1.77;;;1.23;;
9436;SDS011;4757;59.334;18.034;2022-07-23T04:38:59;4.53;;;1.40;;
9436;SDS011;4757;59.334;18.034;2022-07-23T04:41:27;1.73;;;1.63;;
9436;SDS011;4757;59.334;18.034;2022-07-23T04:43:55;3.93;;;1.77;;
9436;SDS011;4757;59.334;18.034;2022-07-23T04:46:22;1.90;;;1.70;;
9436;SDS011;4757;59.334;18.034;2022-07-23T04:48:49;2.67;;;1.40;;
9436;SDS011;4757;59.334;18.034;2022-07-23T04:51:16;2.13;;;1.40;;
9436;SDS011;4757;59.334;18.034;2022-07-23T04:53:43;2.77;;;1.63;;
9436;SDS011;4757;59.334;18.034;2022-07-23T04:56:11;2.83;;;1.60;;
9436;SDS011;4757;59.334;18.034;2022-07-23T04:58:39;1.47;;;1.37;;
9436;SDS011;4757;59.334;18.034;2022-07-23T05:01:06;2.27;;;2.07;;
9436;SDS011;4757;59.334;18.034;2022-07-23T05:03:33;2.63;;;1.70;;
9436;SDS011;4757;59.334;18.034;2022-07-23T05:06:03;1.73;;;1.60;;
9436;SDS011;4757;59.334;18.034;2022-07-23T05:08:31;1.67;;;1.53;;
9436;SDS011;4757;59.334;18.034;2022-07-23T05:10:58;2.80;;;1.80;;
9436;SDS011;4757;59.334;18.034;2022-07-23T05:13:25;2.90;;;1.50;;
9436;SDS011;4757;59.334;18.034;2022-07-23T05:15:52;2.30;;;1.90;;
9436;SDS011;4757;59.334;18.034;2022-07-23T05:18:19;5.00;;;1.60;;
9436;SDS011;4757;59.334;18.034;2022-07-23T05:20:46;2.63;;;1.40;;
9436;SDS011;4757;59.334;18.034;2022-07-23T05:23:13;5.27;;;1.83;;
9436;SDS011;4757;59.334;18.034;2022-07-23T05:25:40;3.03;;;1.90;;
9436;SDS011;4757;59.334;18.034;2022-07-23T05:28:07;2.13;;;1.93;;
9436;SDS011;4757;59.334;18.034;2022-07-23T05:30:34;3.07;;;1.90;;
9436;SDS011;4757;59.334;18.034;2022-07-23T05:33:01;2.20;;;1.80;;
9436;SDS011;4757;59.334;18.034;2022-07-23T05:35:28;2.73;;;1.80;;
9436;SDS011;4757;59.334;18.034;2022-07-23T05:37:55;2.67;;;2.27;;
9436;SDS011;4757;59.334;18.034;2022-07-23T05:40:22;1.77;;;1.60;;
9436;SDS011;4757;59.334;18.034;2022-07-23T05:42:49;1.90;;;1.63;;
9436;SDS011;4757;59.334;18.034;2022-07-23T05:45:16;1.70;;;1.60;;
9436;SDS011;4757;59.334;18.034;2022-07-23T05:47:45;1.90;;;1.70;;
9436;SDS011;4757;59.334;18.034;2022-07-23T05:50:13;1.70;;;1.60;;
9436;SDS011;4757;59.334;18.034;2022-07-23T05:52:42;1.67;;;1.53;;
9436;SDS011;4757;59.334;18.034;2022-07-23T05:55:10;2.83;;;1.73;;
9436;SDS011;4757;59.334;18.034;2022-07-23T05:57:39;2.30;;;1.43;;
9436;SDS011;4757;59.334;18.034;2022-07-23T06:00:07;2.17;;;1.40;;
9436;SDS011;4757;59.334;18.034;2022-07-23T06:02:35;1.60;;;1.50;;
9436;SDS011;4757;59.334;18.034;2022-07-23T06:05:03;1.77;;;1.67;;
9436;SDS011;4757;59.334;18.034;2022-07-23T06:07:31;2.40;;;1.70;;
9436;SDS011;4757;59.334;18.034;2022-07-23T06:09:58;1.93;;;1.50;;
9436;SDS011;4757;59.334;18.034;2022-07-23T06:12:25;2.23;;;1.50;;
9436;SDS011;4757;59.334;18.034;2022-07-23T06:14:52;1.80;;;1.37;;
9436;SDS011;4757;59.334;18.034;2022-07-23T06:17:19;4.00;;;1.60;;
9436;SDS011;4757;59.334;18.034;2022-07-23T06:19:46;1.73;;;1.43;;
9436;SDS011;4757;59.334;18.034;2022-07-23T06:22:13;1.30;;;1.20;;
9436;SDS011;4757;59.334;18.034;2022-07-23T06:24:40;2.13;;;1.13;;
9436;SDS011;4757;59.334;18.034;2022-07-23T06:27:07;1.40;;;1.30;;
9436;SDS011;4757;59.334;18.034;2022-07-23T06:29:34;2.17;;;1.57;;
9436;SDS011;4757;59.334;18.034;2022-07-23T06:32:01;2.10;;;1.20;;
9436;SDS011;4757;59.334;18.034;2022-07-23T06:34:28;1.20;;;1.10;;
9436;SDS011;4757;59.334;18.034;2022-07-23T06:36:58;2.20;;;1.30;;
9436;SDS011;4757;59.334;18.034;2022-07-23T06:39:27;2.43;;;1.50;;
9436;SDS011;4757;59.334;18.034;2022-07-23T06:41:54;1.50;;;1.40;;
9436;SDS011;4757;59.334;18.034;2022-07-23T06:44:26;2.17;;;1.30;;
9436;SDS011;4757;59.334;18.034;2022-07-23T06:46:53;1.30;;;1.20;;
9436;SDS011;4757;59.334;18.034;2022-07-23T06:49:24;1.60;;;1.20;;
9436;SDS011;4757;59.334;18.034;2022-07-23T06:51:50;0.93;;;0.90;;
9436;SDS011;4757;59.334;18.034;2022-07-23T06:54:17;1.33;;;1.20;;
9436;SDS011;4757;59.334;18.034;2022-07-23T06:56:45;1.00;;;1.00;;
9436;SDS011;4757;59.334;18.034;2022-07-23T06:59:12;1.30;;;1.20;;
9436;SDS011;4757;59.334;18.034;2022-07-23T07:01:39;1.30;;;1.20;;
9436;SDS011;4757;59.334;18.034;2022-07-23T07:04:06;0.80;;;0.80;;
9436;SDS011;4757;59.334;18.034;2022-07-23T07:06:33;1.20;;;1.10;;
9436;SDS011;4757;59.334;18.034;2022-07-23T07:09:00;1.00;;;1.00;;
9436;SDS011;4757;59.334;18.034;2022-07-23T07:11:28;1.00;;;0.90;;
9436;SDS011;4757;59.334;18.034;2022-07-23T07:13:55;1.50;;;1.13;;
9436;SDS011;4757;59.334;18.034;2022-07-23T07:16:22;1.60;;;1.03;;
9436;SDS011;4757;59.334;18.034;2022-07-23T07:18:55;1.10;;;1.00;;
9436;SDS011;4757;59.334;18.034;2022-07-23T07:21:23;1.00;;;0.90;;
9436;SDS011;4757;59.334;18.034;2022-07-23T07:23:50;1.30;;;1.20;;
9436;SDS011;4757;59.334;18.034;2022-07-23T07:26:17;2.03;;;1.43;;
9436;SDS011;4757;59.334;18.034;2022-07-23T07:28:45;0.90;;;0.90;;
9436;SDS011;4757;59.334;18.034;2022-07-23T07:31:12;1.20;;;1.10;;
9436;SDS011;4757;59.334;18.034;2022-07-23T07:33:39;1.00;;;1.00;;
9436;SDS011;4757;59.334;18.034;2022-07-23T07:36:06;2.37;;;1.20;;
9436;SDS011;4757;59.334;18.034;2022-07-23T07:38:34;1.00;;;1.00;;
9436;SDS011;4757;59.334;18.034;2022-07-23T07:41:02;1.83;;;1.10;;
9436;SDS011;4757;59.334;18.034;2022-07-23T07:43:29;1.17;;;0.97;;
9436;SDS011;4757;59.334;18.034;2022-07-23T07:45:56;1.00;;;0.90;;
9436;SDS011;4757;59.334;18.034;2022-07-23T07:48:23;1.07;;;0.97;;
9436;SDS011;4757;59.334;18.034;2022-07-23T07:50:50;1.00;;;1.00;;
9436;SDS011;4757;59.334;18.034;2022-07-23T07:53:18;1.00;;;0.90;;
9436;SDS011;4757;59.334;18.034;2022-07-23T07:55:51;1.50;;;1.10;;
9436;SDS011;4757;59.334;18.034;2022-07-23T07:58:18;1.20;;;1.10;;
9436;SDS011;4757;59.334;18.034;2022-07-23T08:00:45;4.60;;;0.90;;
9436;SDS011;4757;59.334;18.034;2022-07-23T08:03:12;0.97;;;0.90;;
9436;SDS011;4757;59.334;18.034;2022-07-23T08:05:41;1.40;;;1.30;;
9436;SDS011;4757;59.334;18.034;2022-07-23T08:08:08;3.53;;;1.10;;
9436;SDS011;4757;59.334;18.034;2022-07-23T08:10:36;0.80;;;0.80;;
9436;SDS011;4757;59.334;18.034;2022-07-23T08:13:03;1.07;;;1.07;;
9436;SDS011;4757;59.334;18.034;2022-07-23T08:15:30;1.00;;;1.00;;
9436;SDS011;4757;59.334;18.034;2022-07-23T08:17:58;1.03;;;1.03;;
9436;SDS011;4757;59.334;18.034;2022-07-23T08:20:26;1.00;;;1.00;;
9436;SDS011;4757;59.334;18.034;2022-07-23T08:25:33;1.07;;;1.07;;
9436;SDS011;4757;59.334;18.034;2022-07-23T08:28:03;1.10;;;1.03;;
9436;SDS011;4757;59.334;18.034;2022-07-23T08:30:32;1.00;;;1.00;;
9436;SDS011;4757;59.334;18.034;2022-07-23T08:33:01;3.50;;;1.00;;
9436;SDS011;4757;59.334;18.034;2022-07-23T08:35:31;0.90;;;0.90;;
9436;SDS011;4757;59.334;18.034;2022-07-23T08:38:03;2.33;;;1.27;;
9436;SDS011;4757;59.334;18.034;2022-07-23T08:40:32;2.73;;;0.90;;
9436;SDS011;4757;59.334;18.034;2022-07-23T08:43:09;0.70;;;0.70;;
9436;SDS011;4757;59.334;18.034;2022-07-23T08:45:43;1.40;;;1.00;;
9436;SDS011;4757;59.334;18.034;2022-07-23T08:48:17;2.53;;;1.10;;
9436;SDS011;4757;59.334;18.034;2022-07-23T08:50:48;2.47;;;0.90;;
9436;SDS011;4757;59.334;18.034;2022-07-23T08:53:24;1.10;;;1.03;;
9436;SDS011;4757;59.334;18.034;2022-07-23T08:55:53;0.80;;;0.80;;
9436;SDS011;4757;59.334;18.034;2022-07-23T08:58:23;1.20;;;0.80;;
9436;SDS011;4757;59.334;18.034;2022-07-23T09:00:54;3.00;;;0.77;;
9436;SDS011;4757;59.334;18.034;2022-07-23T09:03:30;0.93;;;0.90;;
9436;SDS011;4757;59.334;18.034;2022-07-23T09:05:59;1.00;;;1.00;;
9436;SDS011;4757;59.334;18.034;2022-07-23T09:08:40;1.00;;;1.00;;
9436;SDS011;4757;59.334;18.034;2022-07-23T09:11:10;0.90;;;0.90;;
9436;SDS011;4757;59.334;18.034;2022-07-23T09:13:39;0.80;;;0.80;;
9436;SDS011;4757;59.334;18.034;2022-07-23T09:16:23;0.70;;;0.70;;
9436;SDS011;4757;59.334;18.034;2022-07-23T09:19:03;1.83;;;1.27;;
9436;SDS011;4757;59.334;18.034;2022-07-23T09:21:35;2.50;;;1.30;;
9436;SDS011;4757;59.334;18.034;2022-07-23T09:24:05;0.70;;;0.70;;
9436;SDS011;4757;59.334;18.034;2022-07-23T09:26:40;1.30;;;1.20;;
9436;SDS011;4757;59.334;18.034;2022-07-23T09:29:08;4.27;;;1.40;;
9436;SDS011;4757;59.334;18.034;2022-07-23T09:31:46;0.60;;;0.60;;
9436;SDS011;4757;59.334;18.034;2022-07-23T09:36:50;2.77;;;0.80;;
9436;SDS011;4757;59.334;18.034;2022-07-23T09:39:32;0.90;;;0.80;;
9436;SDS011;4757;59.334;18.034;2022-07-23T09:42:15;1.00;;;0.70;;
9436;SDS011;4757;59.334;18.034;2022-07-23T09:44:47;1.77;;;0.90;;
9436;SDS011;4757;59.334;18.034;2022-07-23T09:47:16;1.37;;;0.77;;
9436;SDS011;4757;59.334;18.034;2022-07-23T09:52:42;1.33;;;0.80;;
9436;SDS011;4757;59.334;18.034;2022-07-23T09:55:12;1.47;;;0.97;;
9436;SDS011;4757;59.334;18.034;2022-07-23T09:57:43;0.90;;;0.90;;
9436;SDS011;4757;59.334;18.034;2022-07-23T10:00:12;0.70;;;0.70;;
9436;SDS011;4757;59.334;18.034;2022-07-23T10:02:39;0.60;;;0.60;;
9436;SDS011;4757;59.334;18.034;2022-07-23T10:05:07;0.87;;;0.87;;
9436;SDS011;4757;59.334;18.034;2022-07-23T10:07:38;1.43;;;0.70;;
9436;SDS011;4757;59.334;18.034;2022-07-23T10:10:06;0.97;;;0.97;;
9436;SDS011;4757;59.334;18.034;2022-07-23T10:12:34;0.80;;;0.80;;
9436;SDS011;4757;59.334;18.034;2022-07-23T10:15:17;1.03;;;0.93;;
9436;SDS011;4757;59.334;18.034;2022-07-23T10:17:44;1.73;;;0.87;;
9436;SDS011;4757;59.334;18.034;2022-07-23T10:20:12;1.40;;;1.00;;
9436;SDS011;4757;59.334;18.034;2022-07-23T10:22:44;1.30;;;1.20;;
9436;SDS011;4757;59.334;18.034;2022-07-23T10:25:27;0.87;;;0.87;;
9436;SDS011;4757;59.334;18.034;2022-07-23T10:31:00;2.23;;;0.80;;
9436;SDS011;4757;59.334;18.034;2022-07-23T10:33:38;0.80;;;0.80;;
9436;SDS011;4757;59.334;18.034;2022-07-23T10:36:28;0.80;;;0.80;;
9436;SDS011;4757;59.334;18.034;2022-07-23T10:39:03;0.90;;;0.90;;
9436;SDS011;4757;59.334;18.034;2022-07-23T10:41:33;0.90;;;0.90;;
9436;SDS011;4757;59.334;18.034;2022-07-23T10:44:12;0.80;;;0.80;;
9436;SDS011;4757;59.334;18.034;2022-07-23T10:47:03;0.80;;;0.80;;
9436;SDS011;4757;59.334;18.034;2022-07-23T10:49:49;0.80;;;0.80;;
9436;SDS011;4757;59.334;18.034;2022-07-23T10:52:21;3.53;;;1.10;;
9436;SDS011;4757;59.334;18.034;2022-07-23T10:54:53;1.00;;;1.00;;
9436;SDS011;4757;59.334;18.034;2022-07-23T10:57:22;0.93;;;0.80;;
9436;SDS011;4757;59.334;18.034;2022-07-23T11:02:28;0.93;;;0.90;;
9436;SDS011;4757;59.334;18.034;2022-07-23T11:05:00;0.90;;;0.90;;
9436;SDS011;4757;59.334;18.034;2022-07-23T11:07:30;1.10;;;1.00;;
9436;SDS011;4757;59.334;18.034;2022-07-23T11:09:57;2.00;;;0.90;;
9436;SDS011;4757;59.334;18.034;2022-07-23T11:17:38;1.73;;;1.63;;
9436;SDS011;4757;59.334;18.034;2022-07-23T11:22:36;1.43;;;1.20;;
9436;SDS011;4757;59.334;18.034;2022-07-23T11:25:04;4.30;;;3.83;;
9436;SDS011;4757;59.334;18.034;2022-07-23T11:27:42;2.20;;;1.40;;
9436;SDS011;4757;59.334;18.034;2022-07-23T11:30:57;2.07;;;1.10;;
9436;SDS011;4757;59.334;18.034;2022-07-23T11:35:39;1.80;;;1.60;;
9436;SDS011;4757;59.334;18.034;2022-07-23T11:38:14;1.80;;;1.70;;
9436;SDS011;4757;59.334;18.034;2022-07-23T11:40:45;1.37;;;1.10;;
9436;SDS011;4757;59.334;18.034;2022-07-23T11:43:14;1.10;;;1.00;;
9436;SDS011;4757;59.334;18.034;2022-07-23T11:45:42;1.23;;;1.13;;
9436;SDS011;4757;59.334;18.034;2022-07-23T11:48:30;4.30;;;1.27;;
9436;SDS011;4757;59.334;18.034;2022-07-23T11:51:04;2.20;;;2.00;;
9436;SDS011;4757;59.334;18.034;2022-07-23T11:53:33;3.87;;;3.20;;
9436;SDS011;4757;59.334;18.034;2022-07-23T11:56:05;1.90;;;1.77;;
9436;SDS011;4757;59.334;18.034;2022-07-23T11:58:34;1.67;;;1.57;;
9436;SDS011;4757;59.334;18.034;2022-07-23T12:01:03;8.03;;;7.20;;
9436;SDS011;4757;59.334;18.034;2022-07-23T12:03:48;3.17;;;2.40;;
9436;SDS011;4757;59.334;18.034;2022-07-23T12:06:16;2.50;;;1.37;;
9436;SDS011;4757;59.334;18.034;2022-07-23T12:08:43;3.30;;;2.53;;
9436;SDS011;4757;59.334;18.034;2022-07-23T12:11:11;2.00;;;1.40;;
9436;SDS011;4757;59.334;18.034;2022-07-23T12:13:39;2.63;;;1.30;;
9436;SDS011;4757;59.334;18.034;2022-07-23T12:16:06;1.17;;;1.07;;
9436;SDS011;4757;59.334;18.034;2022-07-23T12:18:34;3.07;;;2.60;;
9436;SDS011;4757;59.334;18.034;2022-07-23T12:21:03;1.97;;;1.40;;
9436;SDS011;4757;59.334;18.034;2022-07-23T12:23:33;1.20;;;1.10;;
9436;SDS011;4757;59.334;18.034;2022-07-23T12:26:01;2.50;;;1.20;;
9436;SDS011;4757;59.334;18.034;2022-07-23T12:28:30;1.97;;;1.30;;
9436;SDS011;4757;59.334;18.034;2022-07-23T12:31:04;1.53;;;1.20;;
9436;SDS011;4757;59.334;18.034;2022-07-23T12:33:33;1.10;;;1.00;;
9436;SDS011;4757;59.334;18.034;2022-07-23T12:36:02;1.27;;;1.00;;
9436;SDS011;4757;59.334;18.034;2022-07-23T12:38:46;1.53;;;1.43;;
9436;SDS011;4757;59.334;18.034;2022-07-23T12:41:17;1.53;;;1.37;;
9436;SDS011;4757;59.334;18.034;2022-07-23T12:43:45;2.90;;;1.40;;
9436;SDS011;4757;59.334;18.034;2022-07-23T12:46:16;2.50;;;1.40;;
9436;SDS011;4757;59.334;18.034;2022-07-23T12:53:55;1.33;;;1.23;;
9436;SDS011;4757;59.334;18.034;2022-07-23T12:56:34;1.47;;;1.10;;
9436;SDS011;4757;59.334;18.034;2022-07-23T12:59:14;1.20;;;1.10;;
9436;SDS011;4757;59.334;18.034;2022-07-23T13:01:44;1.67;;;1.20;;
9436;SDS011;4757;59.334;18.034;2022-07-23T13:04:21;1.40;;;1.10;;
9436;SDS011;4757;59.334;18.034;2022-07-23T13:06:54;3.40;;;1.73;;
9436;SDS011;4757;59.334;18.034;2022-07-23T13:09:26;5.83;;;3.20;;
9436;SDS011;4757;59.334;18.034;2022-07-23T13:12:02;1.20;;;1.10;;
9436;SDS011;4757;59.334;18.034;2022-07-23T13:14:31;1.07;;;1.07;;
9436;SDS011;4757;59.334;18.034;2022-07-23T13:16:58;2.00;;;1.83;;
9436;SDS011;4757;59.334;18.034;2022-07-23T13:19:26;2.73;;;1.10;;
9436;SDS011;4757;59.334;18.034;2022-07-23T13:21:53;1.00;;;1.00;;
9436;SDS011;4757;59.334;18.034;2022-07-23T13:24:20;2.90;;;1.27;;
9436;SDS011;4757;59.334;18.034;2022-07-23T13:26:51;2.63;;;2.43;;
9436;SDS011;4757;59.334;18.034;2022-07-23T13:29:18;3.83;;;2.83;;
9436;SDS011;4757;59.334;18.034;2022-07-23T13:31:47;1.67;;;1.23;;
9436;SDS011;4757;59.334;18.034;2022-07-23T13:34:16;1.30;;;1.20;;
9436;SDS011;4757;59.334;18.034;2022-07-23T13:36:43;1.30;;;1.20;;
9436;SDS011;4757;59.334;18.034;2022-07-23T13:39:12;1.80;;;1.40;;
9436;SDS011;4757;59.334;18.034;2022-07-23T13:41:40;1.30;;;1.20;;
9436;SDS011;4757;59.334;18.034;2022-07-23T13:44:16;1.50;;;1.40;;
9436;SDS011;4757;59.334;18.034;2022-07-23T13:46:47;1.30;;;1.17;;
9436;SDS011;4757;59.334;18.034;2022-07-23T13:49:14;2.77;;;1.27;;
9436;SDS011;4757;59.334;18.034;2022-07-23T13:51:42;1.10;;;1.00;;
9436;SDS011;4757;59.334;18.034;2022-07-23T13:54:11;1.30;;;1.20;;
9436;SDS011;4757;59.334;18.034;2022-07-23T13:56:39;2.30;;;1.30;;
9436;SDS011;4757;59.334;18.034;2022-07-23T13:59:06;3.33;;;1.30;;
9436;SDS011;4757;59.334;18.034;2022-07-23T14:01:34;1.27;;;1.17;;
9436;SDS011;4757;59.334;18.034;2022-07-23T14:04:21;2.37;;;1.10;;
9436;SDS011;4757;59.334;18.034;2022-07-23T14:06:52;1.10;;;1.00;;
9436;SDS011;4757;59.334;18.034;2022-07-23T14:09:20;2.10;;;1.20;;
9436;SDS011;4757;59.334;18.034;2022-07-23T14:11:47;1.90;;;1.63;;
9436;SDS011;4757;59.334;18.034;2022-07-23T14:14:15;3.50;;;1.57;;
9436;SDS011;4757;59.334;18.034;2022-07-23T14:16:43;1.87;;;1.33;;
9436;SDS011;4757;59.334;18.034;2022-07-23T14:19:10;2.00;;;1.10;;
9436;SDS011;4757;59.334;18.034;2022-07-23T14:21:38;1.37;;;1.10;;
9436;SDS011;4757;59.334;18.034;2022-07-23T14:24:05;1.20;;;1.10;;
9436;SDS011;4757;59.334;18.034;2022-07-23T14:26:33;3.00;;;1.80;;
9436;SDS011;4757;59.334;18.034;2022-07-23T14:29:01;3.10;;;2.10;;
9436;SDS011;4757;59.334;18.034;2022-07-23T14:31:29;1.60;;;1.50;;
9436;SDS011;4757;59.334;18.034;2022-07-23T14:33:56;1.47;;;1.37;;
9436;SDS011;4757;59.334;18.034;2022-07-23T14:36:23;1.50;;;1.40;;
9436;SDS011;4757;59.334;18.034;2022-07-23T14:38:50;2.60;;;1.60;;
9436;SDS011;4757;59.334;18.034;2022-07-23T14:41:18;1.53;;;1.23;;
9436;SDS011;4757;59.334;18.034;2022-07-23T14:43:52;1.30;;;1.17;;
9436;SDS011;4757;59.334;18.034;2022-07-23T14:46:19;1.60;;;1.10;;
9436;SDS011;4757;59.334;18.034;2022-07-23T14:48:46;4.20;;;1.60;;
9436;SDS011;4757;59.334;18.034;2022-07-23T14:51:13;0.93;;;0.90;;
9436;SDS011;4757;59.334;18.034;2022-07-23T14:53:41;1.50;;;1.40;;
9436;SDS011;4757;59.334;18.034;2022-07-23T14:56:08;2.33;;;1.57;;
9436;SDS011;4757;59.334;18.034;2022-07-23T14:58:35;2.03;;;1.83;;
9436;SDS011;4757;59.334;18.034;2022-07-23T15:01:03;1.50;;;1.30;;
9436;SDS011;4757;59.334;18.034;2022-07-23T15:03:30;1.43;;;1.23;;
9436;SDS011;4757;59.334;18.034;2022-07-23T15:06:05;1.57;;;1.40;;
9436;SDS011;4757;59.334;18.034;2022-07-23T15:08:33;1.97;;;1.17;;
9436;SDS011;4757;59.334;18.034;2022-07-23T15:11:00;1.23;;;1.13;;
9436;SDS011;4757;59.334;18.034;2022-07-23T15:13:27;2.53;;;1.60;;
9436;SDS011;4757;59.334;18.034;2022-07-23T15:15:57;1.67;;;1.30;;
9436;SDS011;4757;59.334;18.034;2022-07-23T15:18:24;1.60;;;1.20;;
9436;SDS011;4757;59.334;18.034;2022-07-23T15:20:51;1.60;;;1.50;;
9436;SDS011;4757;59.334;18.034;2022-07-23T15:23:18;2.33;;;2.13;;
9436;SDS011;4757;59.334;18.034;2022-07-23T15:25:46;1.50;;;1.40;;
9436;SDS011;4757;59.334;18.034;2022-07-23T15:28:16;1.23;;;1.20;;
9436;SDS011;4757;59.334;18.034;2022-07-23T15:30:47;2.63;;;1.50;;
9436;SDS011;4757;59.334;18.034;2022-07-23T15:33:15;2.90;;;2.70;;
9436;SDS011;4757;59.334;18.034;2022-07-23T15:35:47;2.73;;;1.47;;
9436;SDS011;4757;59.334;18.034;2022-07-23T15:38:14;2.30;;;1.83;;